This is the latest recevied weather packets stored in our database for station/object DO1BDB-12. If no packets are shown the sender has not sent any weather packets the latest 10 day(s).
| Time | Temp. | Humidity | Pressure | Rain* | Wind** | Luminosity | Snow |
|---|---|---|---|---|---|---|---|
| 1777617146 | 31.67° C | 21% | 102.9 hPa | - | - | - | - |
| 1777617080 | 30.56° C | 22% | 103 hPa | - | - | - | - |
| 1777617014 | 30.56° C | 22% | 103 hPa | - | - | - | - |
| 1777616948 | 30° C | 22% | 102.9 hPa | - | - | - | - |
| 1777616882 | 30° C | 23% | 103 hPa | - | - | - | - |
| 1777616816 | 28.33° C | 24% | 103 hPa | - | - | - | - |
| 1777616751 | 28.89° C | 24% | 103 hPa | - | - | - | - |
| 1777616685 | 26.67° C | 24% | 103 hPa | - | - | - | - |
| 1777616619 | 31.11° C | 22% | 102.9 hPa | - | - | - | - |
| 1777616553 | 28.33° C | 23% | 103 hPa | - | - | - | - |
| 1777616487 | 28.33° C | 24% | 103 hPa | - | - | - | - |
| 1777616422 | 28.89° C | 23% | 103 hPa | - | - | - | - |
| 1777616356 | 30° C | 24% | 102.9 hPa | - | - | - | - |
| 1777616290 | 26.67° C | 26% | 103 hPa | - | - | - | - |
| 1777616224 | 22.78° C | 31% | 103 hPa | - | - | - | - |
| 1777616158 | 26.11° C | 26% | 103 hPa | - | - | - | - |
| 1777616092 | 27.78° C | 24% | 103 hPa | - | - | - | - |
| 1777616026 | 27.78° C | 25% | 103 hPa | - | - | - | - |
| 1777615960 | 27.78° C | 24% | 103 hPa | - | - | - | - |
| 1777615895 | 28.33° C | 24% | 102.9 hPa | - | - | - | - |
| 1777615829 | 27.22° C | 25% | 102.9 hPa | - | - | - | - |
| 1777615763 | 27.22° C | 25% | 103 hPa | - | - | - | - |
| 1777615697 | 25.56° C | 27% | 103 hPa | - | - | - | - |
| 1777615631 | 26.11° C | 26% | 103 hPa | - | - | - | - |
| 1777615565 | 26.67° C | 27% | 103 hPa | - | - | - | - |
* Rain since midnight (hover to see other rain measurements)
** Current wind speed in m/s (hover to see current wind gust speed)